PAGINA EN CONSTRUCCIÓN

DISCULPEN POSIBLES FALLOS



Meteosat more information blitzortung!


Radar lluvias  rain snow radar


Visita nuestra red de sitios de meteo:

Documentation for the template used

MeteoibericaRed estaciones Meteorologicas



Sin Advertencias climatologicas .En este momento tenemos Nivel Verde.    No hay Alarmas

Informes METAR proximidad

   
LEMD - Madrid/Barajas
Actualización: 25-02-2018 11:30
Despejado  
Despejado  
   Viento: varía 3.7 km/h
Viento: varía 3.7 km/h
Temperatura: 9°C
Punto de rocío: -6°C
Humedad: 34%
Baromètro: 1012 hPa
Visibilidad: More than 10 km
detalles de la nube: Despejado
LEMD 251130Z VRB02KT CAVOK 09/M06 Q1012 NOSIG
LEBL - Barcelona/El Prat
Actualización: 25-02-2018 11:30
Despejado  
Despejado  
   Viento: SSW 14.8 km/h
Viento: SSW 14.8 km/h
Temperatura: 13°C
Punto de rocío: 3°C
Humedad: 51%
Baromètro: 1009 hPa
Visibilidad: More than 10 km
detalles de la nube: Despejado
LEBL 251130Z 20008KT CAVOK 13/03 Q1009 NOSIG
LEVC - Valencia
Actualización: 25-02-2018 11:30
Despejado  
Despejado  
   Viento: varía 3.7 km/h
Viento: varía 3.7 km/h
Temperatura: 15°C
Punto de rocío: -2°C
Humedad: 31%
Baromètro: 1011 hPa
Visibilidad: More than 10 km
detalles de la nube: Despejado
LEVC 251130Z VRB02KT CAVOK 15/M02 Q1011 NOSIG
LETO - Madrid/Torrejon
Actualización: 25-02-2018 11:00
Despejado  
Despejado  
   Viento: NNW 1.9 km/h
Viento: NNW 1.9 km/h
Temperatura: 8°C
Punto de rocío: -6°C
Humedad: 37%
Baromètro: 1012 hPa
Visibilidad: More than 10 km
detalles de la nube: Despejado
LETO 251100Z 34001KT CAVOK 08/M06 Q1012 NOSIG
LEVS - Madrid/Cuatro Vientos
Actualización: 25-02-2018 11:30
Despejado  
Despejado  
   Viento: varía 5.6 km/h
Viento: varía 5.6 km/h
Temperatura: 11°C
Punto de rocío: -7°C
Humedad: 28%
Baromètro: 1012 hPa
Visibilidad: More than 10 km
detalles de la nube: Despejado
LEVS 251130Z VRB03KT CAVOK 11/M07 Q1012
LEGT - Madrid/Getafe
Actualización: 25-02-2018 11:00
Despejado  
Despejado  
   Viento: varía 1.9 km/h
Viento: varía 1.9 km/h
Temperatura: 9°C
Punto de rocío: -7°C
Humedad: 32%
Baromètro: 1012 hPa
Visibilidad: More than 10 km
detalles de la nube: Despejado
LEGT 251100Z VRB01KT CAVOK 09/M07 Q1012
LEVD - Valladolid
Actualización: 25-02-2018 11:30
Despejado  
Despejado  
   Viento: NNW 3.7 km/h
Viento: NNW 3.7 km/h
Temperatura: 8°C
Punto de rocío: -7°C
Humedad: 34%
Baromètro: 1012 hPa
Visibilidad: More than 10 km
detalles de la nube: Despejado
LEVD 251130Z 33002KT CAVOK 08/M07 Q1012
LEZG - Zaragoza
Actualización: 25-02-2018 11:30
Despejado  
Despejado  
   Viento: WNW 14.8 km/h
Viento: WNW 14.8 km/h
Temperatura: 10°C
Térmica: 8°C
Punto de rocío: -1°C
Humedad: 47%
Baromètro: 1011 hPa
Visibilidad: More than 10 km
detalles de la nube: Despejado
LEZG 251130Z 29008KT 260V330 CAVOK 10/M01 Q1011
LEVT - Vitoria
Actualización: 25-02-2018 11:30
Patches of, Niebla, Nubes dispersas  
Patches of, Niebla, Nubes dispersas  
   Viento: varía 3.7 km/h
Viento: varía 3.7 km/h
Temperatura: 2°C
Punto de rocío: 2°C
Humedad: 100%
Baromètro: 1013 hPa
Nublado: Nubes dispersas
Visibilidad: 5 km
detalles de la nube: Nubes dispersas 300 ft
LEVT 251130Z VRB02KT 5000 BCFG FEW003 02/02 Q1013
LELN - Leon/Virgen del Camino
Actualización: 25-02-2018 11:00
Despejado  
Despejado  
   Viento: SSW 7.4 km/h
Viento: SSW 7.4 km/h
Temperatura: 7°C
Térmica: 6°C
Punto de rocío: -4°C
Humedad: 46%
Baromètro: 1012 hPa
Visibilidad: More than 10 km
detalles de la nube: Despejado
LELN 251100Z 21004KT 150V280 CAVOK 07/M04 Q1012
LEPP - Pamplona/Noain
Actualización: 25-02-2018 11:30
Despejado  
Despejado  
   Viento: WNW 5.6 km/h
Viento: WNW 5.6 km/h
Temperatura: 10°C
Térmica: 9°C
Punto de rocío: 0°C
Humedad: 50%
Baromètro: 1011 hPa
Visibilidad: More than 10 km
detalles de la nube: Despejado
LEPP 251130Z 29003KT CAVOK 10/00 Q1011
LEBB - Bilbao/Sondica
Actualización: 25-02-2018 11:30
Nubes dispersas  
Nubes dispersas  
   Viento: WNW 1.9 km/h
Viento: WNW 1.9 km/h
Temperatura: 11°C
Punto de rocío: 5°C
Humedad: 67%
Baromètro: 1014 hPa
Nublado: Nubes dispersas
Visibilidad: More than 10 km
detalles de la nube: Nubes dispersas 2800 ft
LEBB 251130Z 29001KT 9999 FEW028 11/05 Q1014 NOSIG

Guión original por  Saratoga-weather.org Adaptado para la plantilla por  Weerstation Leuven

Usted encontrará nuestra información del tiempo también en:

WeatherCloud

Weather Underground

Iberian Peninsula Weather Network

AWEKAS

Citizen Weather Observer Program (CWOP)